createdAt,value
2024-02-02T00:00:52.295Z,84.33
2024-02-02T00:03:55.229Z,83.79
2024-02-02T00:06:59.670Z,85.17
2024-02-02T00:10:02.896Z,85.44
2024-02-02T00:13:06.544Z,85.89
2024-02-02T00:16:09.643Z,86.90
2024-02-02T00:19:12.802Z,86.85
2024-02-02T00:22:17.866Z,86.07
2024-02-02T00:25:20.776Z,86.38
2024-02-02T00:28:23.649Z,85.52
2024-02-02T00:31:26.591Z,84.91
2024-02-02T00:34:29.631Z,84.66
2024-02-02T00:37:33.995Z,83.60
2024-02-02T00:40:36.921Z,83.26
2024-02-02T00:43:39.797Z,82.94
2024-02-02T00:46:42.689Z,83.82
2024-02-02T00:49:45.781Z,84.08
2024-02-02T00:52:50.334Z,83.81
2024-02-02T00:55:53.223Z,84.64
2024-02-02T00:58:56.081Z,83.90
2024-02-02T01:01:59.037Z,84.34
2024-02-02T01:05:01.956Z,84.51
2024-02-02T01:08:07.192Z,84.30
2024-02-02T01:11:10.236Z,83.44
2024-02-02T01:14:13.405Z,83.61
2024-02-02T01:17:16.275Z,83.92
2024-02-02T01:20:19.482Z,82.61
2024-02-02T01:23:23.815Z,81.25
2024-02-02T01:26:27.080Z,80.75
2024-02-02T01:29:30.484Z,81.07
2024-02-02T01:32:33.603Z,81.36
2024-02-02T01:35:36.538Z,81.58
2024-02-02T01:38:40.864Z,81.04
2024-02-02T01:41:43.721Z,82.64
2024-02-02T01:44:46.578Z,82.48
2024-02-02T01:47:49.530Z,83.37
2024-02-02T01:50:52.408Z,83.56
2024-02-02T01:53:57.140Z,83.50
2024-02-02T01:57:00.138Z,83.65
2024-02-02T02:00:03.499Z,83.91
2024-02-02T02:03:07.177Z,84.07
2024-02-02T02:06:11.180Z,85.95
2024-02-02T02:09:15.672Z,84.86
2024-02-02T02:12:18.819Z,85.17
2024-02-02T02:15:21.846Z,85.06
2024-02-02T02:18:24.770Z,84.50
2024-02-02T02:21:30.156Z,83.70
2024-02-02T02:24:33.235Z,83.34
2024-02-02T02:27:36.345Z,83.89
2024-02-02T02:30:39.723Z,83.48
2024-02-02T02:33:43.383Z,82.51
2024-02-02T02:36:47.637Z,83.75
2024-02-02T02:39:50.798Z,85.19
2024-02-02T02:42:53.579Z,84.64
2024-02-02T02:45:56.894Z,85.16
2024-02-02T02:49:00.735Z,86.41
2024-02-02T02:52:05.422Z,85.99
2024-02-02T02:55:08.768Z,86.93
2024-02-02T02:58:13.265Z,86.34
2024-02-02T03:01:16.662Z,86.21
2024-02-02T03:04:19.656Z,86.13
2024-02-02T03:07:24.025Z,84.37
2024-02-02T03:10:27.265Z,84.93
2024-02-02T03:13:30.196Z,84.74
2024-02-02T03:16:33.084Z,85.40
2024-02-02T03:19:35.898Z,85.64
2024-02-02T03:22:40.374Z,86.37
2024-02-02T03:25:43.440Z,85.89
2024-02-02T03:28:46.292Z,85.48
2024-02-02T03:31:49.259Z,85.17
2024-02-02T03:34:52.506Z,85.42
2024-02-02T03:37:56.937Z,85.45
2024-02-02T03:40:59.802Z,86.23
2024-02-02T03:44:02.618Z,84.97
2024-02-02T03:47:05.446Z,86.05
2024-02-02T03:50:09.313Z,86.68
2024-02-02T03:53:13.614Z,86.83
2024-02-02T03:56:16.476Z,86.85
2024-02-02T03:59:19.355Z,86.02
2024-02-02T04:02:22.431Z,86.15
2024-02-02T04:05:25.414Z,86.65
2024-02-02T04:08:30.610Z,85.99
2024-02-02T04:11:33.620Z,86.63
2024-02-02T04:14:36.532Z,86.33
2024-02-02T04:17:39.500Z,86.59
2024-02-02T04:20:42.629Z,87.32
2024-02-02T04:23:46.924Z,87.41
2024-02-02T04:26:49.849Z,87.94
2024-02-02T04:29:53.433Z,88.08
2024-02-02T04:32:56.487Z,89.27
2024-02-02T04:35:59.417Z,89.25
2024-02-02T04:39:04.297Z,88.30
2024-02-02T04:42:07.823Z,87.17
2024-02-02T04:45:11.367Z,87.29
2024-02-02T04:48:15.345Z,87.17
2024-02-02T04:51:18.470Z,87.46
2024-02-02T04:54:22.769Z,87.82
2024-02-02T04:57:25.813Z,87.40
2024-02-02T05:00:29.113Z,88.00
2024-02-02T05:03:33.289Z,87.47
2024-02-02T05:06:36.386Z,88.57
2024-02-02T05:09:40.745Z,87.97
2024-02-02T05:12:43.739Z,89.11
2024-02-02T05:15:47.373Z,89.56
2024-02-02T05:18:51.858Z,89.29
2024-02-02T05:21:54.923Z,89.07
2024-02-02T05:24:59.452Z,89.88
2024-02-02T05:28:02.336Z,89.81
2024-02-02T05:31:05.659Z,89.37
2024-02-02T05:34:08.832Z,89.43
2024-02-02T05:37:11.868Z,89.72
2024-02-02T05:40:16.502Z,89.57
2024-02-02T05:43:19.324Z,89.93
2024-02-02T05:46:22.207Z,90.53
2024-02-02T05:49:25.376Z,90.61
2024-02-02T05:52:28.483Z,90.06
2024-02-02T05:55:33.033Z,89.79
2024-02-02T05:58:35.950Z,89.89
2024-02-02T06:01:38.886Z,89.97
2024-02-02T06:04:41.936Z,90.24
2024-02-02T06:07:44.778Z,89.22
2024-02-02T06:10:49.013Z,89.42
2024-02-02T06:13:56.132Z,88.70
2024-02-02T06:16:59.216Z,89.31
2024-02-02T06:20:02.422Z,88.70
2024-02-02T06:23:07.129Z,88.45
2024-02-02T06:26:11.654Z,89.23
2024-02-02T06:29:14.595Z,89.11
2024-02-02T06:32:18.604Z,88.78
2024-02-02T06:35:21.508Z,89.55
2024-02-02T06:38:24.362Z,89.91
2024-02-02T06:41:28.634Z,89.83
2024-02-02T06:44:31.559Z,89.44
2024-02-02T06:47:34.768Z,90.09
2024-02-02T06:50:37.977Z,89.96
2024-02-02T06:53:41.054Z,90.04
2024-02-02T06:56:46.200Z,89.91
2024-02-02T06:59:50.345Z,89.63
2024-02-02T07:02:53.306Z,90.00
2024-02-02T07:05:56.646Z,89.78
2024-02-02T07:09:02.792Z,90.32
2024-02-02T07:12:10.498Z,89.28
2024-02-02T07:15:19.447Z,90.05
2024-02-02T07:18:37.918Z,90.44
2024-02-02T07:21:41.079Z,90.46
2024-02-02T07:24:44.877Z,89.66
2024-02-02T07:27:55.430Z,90.03
2024-02-02T07:30:59.081Z,89.95
2024-02-02T07:34:07.266Z,90.12
2024-02-02T07:37:12.633Z,90.41
2024-02-02T07:40:52.500Z,90.35
2024-02-02T07:44:00.129Z,90.26
2024-02-02T07:47:03.075Z,91.14
2024-02-02T07:50:07.349Z,90.63
2024-02-02T07:53:10.444Z,91.37
2024-02-02T07:56:13.828Z,91.43
2024-02-02T07:59:18.177Z,91.42
2024-02-02T08:02:21.212Z,91.38
2024-02-02T08:05:24.030Z,91.20
2024-02-02T08:08:26.922Z,90.91
2024-02-02T08:11:36.763Z,90.55
2024-02-02T08:14:41.789Z,90.54
2024-02-02T08:17:44.866Z,90.43
2024-02-02T08:20:48.076Z,90.36
2024-02-02T08:23:51.020Z,90.95
2024-02-02T08:26:54.563Z,90.27
2024-02-02T08:29:59.503Z,89.63
2024-02-02T08:33:02.787Z,89.08
2024-02-02T08:36:06.493Z,89.24
2024-02-02T08:39:10.990Z,90.01
2024-02-02T08:42:21.059Z,90.28
2024-02-02T08:46:04.853Z,90.73
2024-02-02T08:49:34.551Z,90.75
2024-02-02T08:52:39.207Z,91.00
2024-02-02T08:55:45.381Z,91.25
2024-02-02T08:58:48.280Z,90.70
2024-02-02T09:01:52.701Z,90.10
2024-02-02T09:05:12.288Z,89.59
2024-02-02T09:08:28.571Z,89.67
2024-02-02T09:11:31.517Z,89.97
2024-02-02T09:14:34.828Z,90.38
2024-02-02T09:17:39.079Z,89.66
2024-02-02T09:20:46.763Z,89.44
2024-02-02T09:23:51.464Z,89.64
2024-02-02T09:26:54.523Z,89.59
2024-02-02T09:29:57.666Z,89.77
2024-02-02T09:33:03.602Z,88.68
2024-02-02T09:36:08.234Z,89.12
2024-02-02T09:39:49.176Z,88.09
2024-02-02T09:43:08.860Z,88.06
2024-02-02T09:46:22.267Z,88.19
2024-02-02T09:49:35.832Z,88.13
2024-02-02T09:52:54.427Z,87.48
2024-02-02T09:56:08.054Z,87.88
2024-02-02T09:59:19.759Z,87.87
2024-02-02T10:02:41.103Z,88.05
2024-02-02T10:05:59.770Z,88.07
2024-02-02T10:09:26.372Z,88.38
2024-02-02T10:12:41.169Z,88.15
2024-02-02T10:15:54.290Z,88.43
2024-02-02T10:19:13.406Z,87.96
2024-02-02T10:22:32.616Z,87.44
2024-02-02T10:25:53.070Z,87.20
2024-02-02T10:29:06.705Z,81.52
2024-02-02T10:32:32.555Z,75.07
2024-02-02T10:35:40.569Z,72.64
2024-02-02T10:39:13.762Z,67.33
2024-02-02T10:42:31.897Z,63.84
2024-02-02T10:45:44.131Z,61.43
2024-02-02T10:49:05.367Z,58.93
2024-02-02T10:52:20.914Z,58.61
2024-02-02T10:55:41.475Z,59.67
2024-02-02T10:59:04.454Z,58.39
2024-02-02T11:02:16.837Z,59.92
2024-02-02T11:05:27.358Z,59.16
2024-02-02T11:08:37.319Z,59.33
2024-02-02T11:11:49.075Z,59.00
2024-02-02T11:15:02.911Z,58.86
2024-02-02T11:18:23.639Z,60.52
2024-02-02T11:21:44.340Z,59.25
2024-02-02T11:24:59.417Z,59.15
2024-02-02T11:28:07.115Z,57.99
2024-02-02T11:31:18.076Z,56.72
2024-02-02T11:34:32.945Z,58.39
2024-02-02T11:37:47.104Z,58.41
2024-02-02T11:40:51.840Z,57.71
2024-02-02T11:43:57.222Z,57.22
2024-02-02T11:47:00.692Z,56.92
2024-02-02T11:50:08.210Z,55.59
2024-02-02T11:53:25.109Z,53.58
2024-02-02T11:56:34.002Z,54.14
2024-02-02T11:59:41.590Z,54.64
2024-02-02T12:03:11.248Z,53.08
2024-02-02T12:06:17.188Z,53.85
2024-02-02T12:09:26.912Z,54.19
2024-02-02T12:12:35.649Z,53.79
2024-02-02T12:15:40.180Z,52.49
2024-02-02T12:18:44.256Z,51.03
2024-02-02T12:21:48.482Z,50.85
2024-02-02T12:24:52.228Z,51.16
2024-02-02T12:27:55.452Z,52.33
2024-02-02T12:30:59.829Z,50.90
2024-02-02T12:34:03.493Z,51.49
2024-02-02T12:37:06.630Z,51.37
2024-02-02T12:40:10.690Z,51.70
2024-02-02T12:43:13.699Z,52.25
2024-02-02T12:46:19.201Z,52.52
2024-02-02T12:49:25.532Z,50.45
2024-02-02T12:52:29.545Z,49.61
2024-02-02T12:55:32.550Z,48.61
2024-02-02T12:58:35.442Z,48.07
2024-02-02T13:01:39.952Z,49.25
2024-02-02T13:04:43.020Z,48.85
2024-02-02T13:07:49.082Z,48.23
2024-02-02T13:10:52.695Z,48.61
2024-02-02T13:14:05.131Z,48.90
2024-02-02T13:17:11.324Z,49.90
2024-02-02T13:20:16.886Z,48.37
2024-02-02T13:23:21.668Z,48.50
2024-02-02T13:26:36.928Z,49.45
2024-02-02T13:29:41.033Z,48.84
2024-02-02T13:32:46.836Z,48.83
2024-02-02T13:35:54.664Z,48.92
2024-02-02T13:39:00.281Z,48.99
2024-02-02T13:42:06.082Z,47.92
2024-02-02T13:45:11.724Z,48.59
2024-02-02T13:48:16.417Z,48.07
2024-02-02T13:51:25.773Z,47.94
2024-02-02T13:54:28.869Z,47.23
2024-02-02T13:57:31.989Z,47.48
2024-02-02T14:00:35.485Z,48.01
2024-02-02T14:03:40.008Z,47.94
2024-02-02T14:06:43.219Z,48.90
2024-02-02T14:09:49.061Z,48.15
2024-02-02T14:12:52.951Z,48.28
2024-02-02T14:15:56.650Z,49.24
2024-02-02T14:19:05.846Z,49.72
2024-02-02T14:22:10.468Z,48.16
2024-02-02T14:25:13.505Z,48.86
2024-02-02T14:28:17.555Z,47.71
2024-02-02T14:31:20.704Z,48.29
2024-02-02T14:34:26.123Z,49.08
2024-02-02T14:37:29.288Z,47.73
2024-02-02T14:40:32.577Z,47.00
2024-02-02T14:43:35.602Z,46.16
2024-02-02T14:46:41.109Z,45.95
2024-02-02T14:49:46.226Z,46.91
2024-02-02T14:52:49.344Z,47.97
2024-02-02T14:55:52.191Z,47.66
2024-02-02T14:59:08.454Z,47.87
2024-02-02T15:02:12.752Z,47.80
2024-02-02T15:05:17.160Z,47.38
2024-02-02T15:08:20.417Z,48.00
2024-02-02T15:11:23.273Z,48.24
2024-02-02T15:14:26.239Z,47.58
2024-02-02T15:17:29.013Z,47.85
2024-02-02T15:20:33.289Z,50.09
2024-02-02T15:23:36.087Z,50.34
2024-02-02T15:26:39.997Z,50.59
2024-02-02T15:29:42.928Z,51.42
2024-02-02T15:32:46.769Z,51.26
2024-02-02T15:35:54.684Z,50.77
2024-02-02T15:39:11.934Z,51.56
2024-02-02T15:42:20.451Z,53.23
2024-02-02T15:45:23.403Z,53.32
2024-02-02T15:48:26.350Z,55.23
2024-02-02T15:51:31.804Z,53.45
2024-02-02T15:54:35.362Z,54.30
2024-02-02T15:57:38.594Z,56.03
2024-02-02T16:00:41.952Z,57.25
2024-02-02T16:03:45.182Z,58.15
2024-02-02T16:06:49.508Z,59.37
2024-02-02T16:09:52.524Z,59.16
2024-02-02T16:12:55.484Z,59.18
2024-02-02T16:15:58.362Z,59.54
2024-02-02T16:19:01.610Z,59.78
2024-02-02T16:22:06.326Z,60.86
2024-02-02T16:25:10.870Z,60.50
2024-02-02T16:28:13.981Z,61.14
2024-02-02T16:31:17.061Z,62.00
2024-02-02T16:34:20.480Z,61.39
2024-02-02T16:37:24.808Z,62.57
2024-02-02T16:40:27.979Z,63.05
2024-02-02T16:43:30.931Z,62.92
2024-02-02T16:46:33.809Z,62.70
2024-02-02T16:49:37.567Z,62.50
2024-02-02T16:52:41.874Z,61.88
2024-02-02T16:55:44.674Z,62.60
2024-02-02T16:58:48.122Z,62.68
2024-02-02T17:01:50.978Z,63.73
2024-02-02T17:04:53.804Z,63.93
2024-02-02T17:07:59.749Z,64.49
2024-02-02T17:11:06.663Z,64.50
2024-02-02T17:14:09.600Z,65.01
2024-02-02T17:17:12.491Z,64.78
2024-02-02T17:20:19.035Z,65.63
2024-02-02T17:23:23.511Z,65.80
2024-02-02T17:26:26.341Z,65.86
2024-02-02T17:29:30.914Z,65.65
2024-02-02T17:32:38.753Z,65.48
2024-02-02T17:35:47.091Z,65.55
2024-02-02T17:38:53.713Z,65.72
2024-02-02T17:41:56.649Z,66.01
2024-02-02T17:44:59.511Z,66.41
2024-02-02T17:48:02.839Z,66.83
2024-02-02T17:51:07.760Z,67.18
2024-02-02T17:54:12.061Z,67.28
2024-02-02T17:57:14.986Z,67.10
2024-02-02T18:00:18.577Z,66.88
2024-02-02T18:03:21.513Z,67.28
2024-02-02T18:06:24.469Z,67.41
2024-02-02T18:09:28.668Z,67.62
2024-02-02T18:12:37.603Z,67.74
2024-02-02T18:15:40.657Z,67.53
2024-02-02T18:18:43.597Z,67.71
2024-02-02T18:21:46.889Z,67.52
2024-02-02T18:24:51.619Z,67.51
2024-02-02T18:27:54.832Z,67.90
2024-02-02T18:30:57.678Z,68.34
2024-02-02T18:34:00.712Z,67.77
2024-02-02T18:37:03.912Z,68.05
2024-02-02T18:40:09.591Z,68.17
2024-02-02T18:43:12.487Z,68.04
2024-02-02T18:46:15.436Z,68.12
2024-02-02T18:49:18.294Z,67.35
2024-02-02T18:52:21.234Z,67.56
2024-02-02T18:55:25.550Z,67.83
2024-02-02T18:58:35.429Z,67.26
2024-02-02T19:01:42.582Z,67.66
2024-02-02T19:04:45.996Z,67.28
2024-02-02T19:07:48.948Z,67.32
2024-02-02T19:10:53.137Z,67.71
2024-02-02T19:13:55.945Z,67.86
2024-02-02T19:16:58.783Z,68.57
2024-02-02T19:20:01.774Z,68.08
2024-02-02T19:23:05.130Z,68.17
2024-02-02T19:26:09.324Z,68.19
2024-02-02T19:29:12.239Z,68.35
2024-02-02T19:32:16.446Z,68.42
2024-02-02T19:35:19.384Z,68.71
2024-02-02T19:38:22.194Z,69.01
2024-02-02T19:41:29.359Z,69.12
2024-02-02T19:44:32.148Z,69.07
2024-02-02T19:47:34.971Z,68.71
2024-02-02T19:50:37.939Z,68.71
2024-02-02T19:53:40.734Z,68.75
2024-02-02T19:56:44.910Z,68.89
2024-02-02T19:59:47.865Z,68.67
2024-02-02T20:02:51.347Z,68.97
2024-02-02T20:05:54.491Z,68.70
2024-02-02T20:08:57.506Z,68.78
2024-02-02T20:12:02.341Z,68.58
2024-02-02T20:15:05.811Z,68.25
2024-02-02T20:18:09.188Z,68.56
2024-02-02T20:21:14.281Z,68.19
2024-02-02T20:24:17.276Z,68.65
2024-02-02T20:27:21.962Z,68.72
2024-02-02T20:30:24.964Z,69.16
2024-02-02T20:33:28.050Z,69.18
2024-02-02T20:36:32.256Z,69.20
2024-02-02T20:39:36.764Z,69.05
2024-02-02T20:42:43.826Z,68.62
2024-02-02T20:45:46.964Z,69.32
2024-02-02T20:48:50.533Z,70.25
2024-02-02T20:51:55.224Z,70.44
2024-02-02T20:55:00.210Z,69.22
2024-02-02T20:58:04.833Z,70.11
2024-02-02T21:01:07.737Z,70.32
2024-02-02T21:04:10.760Z,71.12
2024-02-02T21:07:13.809Z,70.08
2024-02-02T21:10:16.973Z,70.37
2024-02-02T21:13:21.832Z,69.85
2024-02-02T21:16:24.821Z,70.93
2024-02-02T21:19:28.922Z,71.37
2024-02-02T21:22:34.435Z,70.96
2024-02-02T21:25:37.530Z,71.60
2024-02-02T21:28:41.706Z,72.04
2024-02-02T21:31:44.478Z,72.04
2024-02-02T21:34:47.597Z,71.85
2024-02-02T21:37:50.999Z,71.56
2024-02-02T21:40:53.860Z,72.06
2024-02-02T21:43:58.535Z,71.79
2024-02-02T21:47:01.304Z,72.61
2024-02-02T21:50:04.561Z,73.21
2024-02-02T21:53:13.257Z,73.26
2024-02-02T21:56:16.381Z,73.30
2024-02-02T21:59:20.534Z,72.82
2024-02-02T22:02:23.316Z,73.12
2024-02-02T22:05:26.291Z,72.70
2024-02-02T22:08:29.162Z,73.01
2024-02-02T22:11:32.171Z,74.06
2024-02-02T22:14:39.743Z,74.61
2024-02-02T22:17:42.616Z,73.45
2024-02-02T22:20:47.827Z,73.24
2024-02-02T22:23:51.047Z,73.80
2024-02-02T22:26:53.920Z,73.30
2024-02-02T22:29:58.260Z,73.37
2024-02-02T22:33:01.246Z,73.15
2024-02-02T22:36:05.700Z,73.54
2024-02-02T22:39:08.768Z,72.36
2024-02-02T22:42:11.991Z,72.57
2024-02-02T22:45:17.161Z,72.15
2024-02-02T22:48:20.271Z,72.82
2024-02-02T22:51:23.315Z,72.49
2024-02-02T22:54:26.247Z,72.81
2024-02-02T22:57:29.154Z,72.32
2024-02-02T23:00:33.633Z,72.74
2024-02-02T23:03:36.694Z,73.47
2024-02-02T23:06:39.893Z,74.74
2024-02-02T23:09:42.987Z,74.80
2024-02-02T23:12:46.551Z,74.90
2024-02-02T23:15:51.597Z,74.71
2024-02-02T23:18:54.539Z,75.06
2024-02-02T23:21:57.516Z,74.67
2024-02-02T23:25:00.473Z,73.66
2024-02-02T23:28:03.756Z,72.99
2024-02-02T23:31:09.211Z,73.61
2024-02-02T23:34:12.572Z,73.28
2024-02-02T23:37:15.429Z,73.93
2024-02-02T23:40:18.457Z,73.84
2024-02-02T23:43:21.441Z,73.92
2024-02-02T23:46:26.053Z,73.13
2024-02-02T23:49:29.027Z,73.51
2024-02-02T23:52:32.017Z,73.88
2024-02-02T23:55:34.873Z,72.96
2024-02-02T23:58:37.724Z,73.39
